createdAt,value
2023-05-21T00:01:49.905Z,93.21
2023-05-21T00:04:18.207Z,93.53
2023-05-21T00:06:45.935Z,93.64
2023-05-21T00:09:14.033Z,93.73
2023-05-21T00:11:41.731Z,93.68
2023-05-21T00:14:09.815Z,93.91
2023-05-21T00:16:38.889Z,94.12
2023-05-21T00:19:07.316Z,94.29
2023-05-21T00:21:35.043Z,94.67
2023-05-21T00:24:03.129Z,94.40
2023-05-21T00:26:30.856Z,94.41
2023-05-21T00:28:59.362Z,94.68
2023-05-21T00:31:27.036Z,94.78
2023-05-21T00:33:56.562Z,94.96
2023-05-21T00:36:25.131Z,95.22
2023-05-21T00:38:53.630Z,95.22
2023-05-21T00:41:22.916Z,95.51
2023-05-21T00:43:51.013Z,95.66
2023-05-21T00:46:21.304Z,95.60
2023-05-21T00:48:51.574Z,95.85
2023-05-21T00:51:21.875Z,96.05
2023-05-21T00:53:52.893Z,96.13
2023-05-21T00:56:21.826Z,96.42
2023-05-21T00:58:51.781Z,96.51
2023-05-21T01:01:20.050Z,96.56
2023-05-21T01:03:48.745Z,96.74
2023-05-21T01:06:17.508Z,96.85
2023-05-21T01:08:46.674Z,96.99
2023-05-21T01:11:15.670Z,97.17
2023-05-21T01:13:44.490Z,97.29
2023-05-21T01:16:14.051Z,97.21
2023-05-21T01:18:47.092Z,97.38
2023-05-21T01:21:17.472Z,97.24
2023-05-21T01:23:47.150Z,97.64
2023-05-21T01:26:16.178Z,97.85
2023-05-21T01:28:43.911Z,98.05
2023-05-21T01:31:26.396Z,98.23
2023-05-21T01:33:59.866Z,98.39
2023-05-21T01:36:34.853Z,98.30
2023-05-21T01:39:10.575Z,98.24
2023-05-21T01:41:43.363Z,98.54
2023-05-21T01:44:13.327Z,98.61
2023-05-21T01:46:41.513Z,98.96
2023-05-21T01:49:10.306Z,99.09
2023-05-21T01:51:38.319Z,99.21
2023-05-21T01:54:07.625Z,99.15
2023-05-21T01:56:37.070Z,99.55
2023-05-21T01:59:05.272Z,99.61
2023-05-21T02:01:33.425Z,99.99
2023-05-21T02:04:02.170Z,100.00
2023-05-21T02:06:31.730Z,100.00
2023-05-21T02:08:59.911Z,100.00
2023-05-21T02:11:29.123Z,100.00
2023-05-21T02:13:58.295Z,100.00
2023-05-21T02:16:26.514Z,100.00
2023-05-21T02:18:57.456Z,100.00
2023-05-21T02:21:26.364Z,100.00
2023-05-21T02:23:54.597Z,100.00
2023-05-21T02:26:23.012Z,100.00
2023-05-21T02:28:53.115Z,100.00
2023-05-21T02:31:20.862Z,100.00
2023-05-21T02:33:48.980Z,100.00
2023-05-21T02:36:19.159Z,100.00
2023-05-21T02:38:48.095Z,100.00
2023-05-21T02:41:15.939Z,100.00
2023-05-21T02:43:44.247Z,100.00
2023-05-21T02:46:13.450Z,100.00
2023-05-21T02:48:41.518Z,100.00
2023-05-21T02:51:09.189Z,100.00
2023-05-21T02:53:37.373Z,100.00
2023-05-21T02:56:05.734Z,100.00
2023-05-21T02:58:33.801Z,100.00
2023-05-21T03:01:01.503Z,100.00
2023-05-21T03:03:32.603Z,100.00
2023-05-21T03:06:00.330Z,100.00
2023-05-21T03:08:28.555Z,100.00
2023-05-21T03:10:56.273Z,100.00
2023-05-21T03:13:23.999Z,100.00
2023-05-21T03:15:56.540Z,100.00
2023-05-21T03:18:24.352Z,100.00
2023-05-21T03:20:53.797Z,100.00
2023-05-21T03:23:21.512Z,100.00
2023-05-21T03:25:49.693Z,100.00
2023-05-21T03:28:17.666Z,100.00
2023-05-21T03:30:46.921Z,100.00
2023-05-21T03:33:15.485Z,100.00
2023-05-21T03:35:43.532Z,100.00
2023-05-21T03:38:12.679Z,100.00
2023-05-21T03:40:40.484Z,100.00
2023-05-21T03:43:08.803Z,100.00
2023-05-21T03:45:37.188Z,100.00
2023-05-21T03:48:05.964Z,100.00
2023-05-21T03:50:34.072Z,100.00
2023-05-21T03:53:02.005Z,100.00
2023-05-21T03:55:31.436Z,100.00
2023-05-21T03:57:59.114Z,100.00
2023-05-21T04:00:26.799Z,100.00
2023-05-21T04:02:54.539Z,100.00
2023-05-21T04:05:22.760Z,100.00
2023-05-21T04:07:50.424Z,100.00
2023-05-21T04:10:18.194Z,100.00
2023-05-21T04:12:49.469Z,100.00
2023-05-21T04:15:18.534Z,100.00
2023-05-21T04:17:47.195Z,100.00
2023-05-21T04:20:16.899Z,100.00
2023-05-21T04:22:45.425Z,100.00
2023-05-21T04:25:13.725Z,100.00
2023-05-21T04:27:42.645Z,100.00
2023-05-21T04:30:12.798Z,100.00
2023-05-21T04:32:40.547Z,100.00
2023-05-21T04:35:10.491Z,100.00
2023-05-21T04:37:42.042Z,100.00
2023-05-21T04:40:11.249Z,100.00
2023-05-21T04:42:39.041Z,100.00
2023-05-21T04:45:07.589Z,100.00
2023-05-21T04:47:37.696Z,100.00
2023-05-21T04:50:06.540Z,100.00
2023-05-21T04:52:34.701Z,100.00
2023-05-21T04:55:02.891Z,100.00
2023-05-21T04:57:30.842Z,100.00
2023-05-21T04:59:58.798Z,100.00
2023-05-21T05:02:26.924Z,100.00
2023-05-21T05:04:56.476Z,100.00
2023-05-21T05:07:24.149Z,100.00
2023-05-21T05:09:52.343Z,100.00
2023-05-21T05:12:20.005Z,100.00
2023-05-21T05:14:48.116Z,100.00
2023-05-21T05:17:15.834Z,100.00
2023-05-21T05:19:43.993Z,100.00
2023-05-21T05:22:13.701Z,100.00
2023-05-21T05:24:42.043Z,100.00
2023-05-21T05:27:09.718Z,100.00
2023-05-21T05:29:37.861Z,100.00
2023-05-21T05:32:06.233Z,100.00
2023-05-21T05:34:34.389Z,100.00
2023-05-21T05:37:02.875Z,100.00
2023-05-21T05:39:32.191Z,100.00
2023-05-21T05:41:59.953Z,100.00
2023-05-21T05:44:27.823Z,100.00
2023-05-21T05:46:55.975Z,100.00
2023-05-21T05:49:24.016Z,100.00
2023-05-21T05:51:51.702Z,100.00
2023-05-21T05:54:19.755Z,100.00
2023-05-21T05:56:48.842Z,100.00
2023-05-21T05:59:17.169Z,100.00
2023-05-21T06:01:44.837Z,99.60
2023-05-21T06:04:12.496Z,99.29
2023-05-21T06:06:40.478Z,99.56
2023-05-21T06:09:08.177Z,98.27
2023-05-21T06:11:36.543Z,97.26
2023-05-21T06:14:05.577Z,95.34
2023-05-21T06:16:34.289Z,96.06
2023-05-21T06:19:02.189Z,96.53
2023-05-21T06:21:30.341Z,96.56
2023-05-21T06:23:58.057Z,96.85
2023-05-21T06:26:26.653Z,96.96
2023-05-21T06:28:54.291Z,97.15
2023-05-21T06:31:23.909Z,96.59
2023-05-21T06:33:51.714Z,95.26
2023-05-21T06:36:20.258Z,95.84
2023-05-21T06:38:47.918Z,95.78
2023-05-21T06:41:16.013Z,95.88
2023-05-21T06:43:43.678Z,95.99
2023-05-21T06:46:11.838Z,95.88
2023-05-21T06:48:40.972Z,95.95
2023-05-21T06:51:09.051Z,95.50
2023-05-21T06:53:36.863Z,95.47
2023-05-21T06:56:05.467Z,95.83
2023-05-21T06:58:33.164Z,94.35
2023-05-21T07:01:01.797Z,94.71
2023-05-21T07:03:29.707Z,95.20
2023-05-21T07:05:59.685Z,95.37
2023-05-21T07:08:27.355Z,94.67
2023-05-21T07:10:57.973Z,94.16
2023-05-21T07:13:25.765Z,94.05
2023-05-21T07:15:53.445Z,94.61
2023-05-21T07:18:21.597Z,94.64
2023-05-21T07:20:49.346Z,94.11
2023-05-21T07:23:19.230Z,94.10
2023-05-21T07:25:46.869Z,94.39
2023-05-21T07:28:15.018Z,94.57
2023-05-21T07:30:43.215Z,93.85
2023-05-21T07:33:12.496Z,91.85
2023-05-21T07:35:40.835Z,89.89
2023-05-21T07:38:09.030Z,89.40
2023-05-21T07:40:38.109Z,89.20
2023-05-21T07:43:06.245Z,89.71
2023-05-21T07:45:33.943Z,86.93
2023-05-21T07:48:01.726Z,86.99
2023-05-21T07:50:29.968Z,86.41
2023-05-21T07:52:57.767Z,84.86
2023-05-21T07:55:25.499Z,84.37
2023-05-21T07:57:54.970Z,84.83
2023-05-21T08:00:24.997Z,84.67
2023-05-21T08:02:53.231Z,83.09
2023-05-21T08:05:21.648Z,80.97
2023-05-21T08:07:49.658Z,80.05
2023-05-21T08:10:19.378Z,79.38
2023-05-21T08:12:47.759Z,79.02
2023-05-21T08:15:16.871Z,78.59
2023-05-21T08:17:44.557Z,79.62
2023-05-21T08:20:13.661Z,77.94
2023-05-21T08:22:41.334Z,76.63
2023-05-21T08:25:10.468Z,76.67
2023-05-21T08:27:38.145Z,75.71
2023-05-21T08:30:06.951Z,75.64
2023-05-21T08:32:36.418Z,74.86
2023-05-21T08:35:04.313Z,73.54
2023-05-21T08:37:32.670Z,73.02
2023-05-21T08:40:00.397Z,72.44
2023-05-21T08:42:37.315Z,72.03
2023-05-21T08:45:07.091Z,72.50
2023-05-21T08:47:38.210Z,71.60
2023-05-21T08:50:10.035Z,69.87
2023-05-21T08:52:37.907Z,71.37
2023-05-21T08:55:07.007Z,72.72
2023-05-21T08:57:35.145Z,69.84
2023-05-21T09:00:04.720Z,69.07
2023-05-21T09:02:38.942Z,67.49
2023-05-21T09:05:07.811Z,67.04
2023-05-21T09:07:43.904Z,67.19
2023-05-21T09:10:14.652Z,66.46
2023-05-21T09:12:43.337Z,68.78
2023-05-21T09:15:11.861Z,66.15
2023-05-21T09:17:41.328Z,66.23
2023-05-21T09:20:12.289Z,67.55
2023-05-21T09:22:44.391Z,65.46
2023-05-21T09:25:12.891Z,64.79
2023-05-21T09:27:41.131Z,65.34
2023-05-21T09:30:12.439Z,64.80
2023-05-21T09:32:42.331Z,63.79
2023-05-21T09:35:11.700Z,64.48
2023-05-21T09:37:40.397Z,67.44
2023-05-21T09:40:12.889Z,67.04
2023-05-21T09:42:40.949Z,66.67
2023-05-21T09:45:09.884Z,65.47
2023-05-21T09:47:44.870Z,64.59
2023-05-21T09:50:13.141Z,63.56
2023-05-21T09:52:42.277Z,63.49
2023-05-21T09:55:12.872Z,64.72
2023-05-21T09:57:44.352Z,63.91
2023-05-21T10:00:20.005Z,62.03
2023-05-21T10:02:50.611Z,64.10
2023-05-21T10:05:18.712Z,63.23
2023-05-21T10:07:50.956Z,61.51
2023-05-21T10:10:21.521Z,64.00
2023-05-21T10:12:56.141Z,61.93
2023-05-21T10:15:26.121Z,59.40
2023-05-21T10:17:57.838Z,59.01
2023-05-21T10:20:25.817Z,60.46
2023-05-21T10:22:54.584Z,60.25
2023-05-21T10:25:25.040Z,60.35
2023-05-21T10:27:52.909Z,56.00
2023-05-21T10:30:23.109Z,56.85
2023-05-21T10:32:51.250Z,57.94
2023-05-21T10:35:21.092Z,58.90
2023-05-21T10:37:50.294Z,56.50
2023-05-21T10:40:19.669Z,53.88
2023-05-21T10:43:11.168Z,53.58
2023-05-21T10:45:55.065Z,52.82
2023-05-21T10:48:41.966Z,51.98
2023-05-21T10:51:25.396Z,50.73
2023-05-21T10:54:33.223Z,50.92
2023-05-21T10:57:12.062Z,52.08
2023-05-21T10:59:43.315Z,52.61
2023-05-21T11:02:14.239Z,50.61
2023-05-21T11:04:44.240Z,50.85
2023-05-21T11:07:14.408Z,51.08
2023-05-21T11:09:42.236Z,50.09
2023-05-21T11:12:10.234Z,48.83
2023-05-21T11:14:40.282Z,49.46
2023-05-21T11:17:13.562Z,47.81
2023-05-21T11:19:43.121Z,50.17
2023-05-21T11:22:21.848Z,50.54
2023-05-21T11:24:51.550Z,51.98
2023-05-21T11:27:34.444Z,49.66
2023-05-21T11:30:05.978Z,49.89
2023-05-21T11:32:33.721Z,51.79
2023-05-21T11:35:02.717Z,47.96
2023-05-21T11:37:35.199Z,50.27
2023-05-21T11:40:25.711Z,51.72
2023-05-21T11:42:55.596Z,48.97
2023-05-21T11:45:24.659Z,48.01
2023-05-21T11:47:53.922Z,50.15
2023-05-21T11:50:22.145Z,48.76
2023-05-21T11:52:51.958Z,49.08
2023-05-21T11:55:23.457Z,46.01
2023-05-21T11:57:54.356Z,47.04
2023-05-21T12:00:22.518Z,47.60
2023-05-21T12:02:53.147Z,46.75
2023-05-21T12:05:22.673Z,47.82
2023-05-21T12:07:52.196Z,46.47
2023-05-21T12:10:24.172Z,46.26
2023-05-21T12:12:55.604Z,45.39
2023-05-21T12:15:26.342Z,47.00
2023-05-21T12:17:55.437Z,46.92
2023-05-21T12:20:23.806Z,44.89
2023-05-21T12:22:53.273Z,44.05
2023-05-21T12:25:21.722Z,42.43
2023-05-21T12:27:52.992Z,42.58
2023-05-21T12:30:21.861Z,42.29
2023-05-21T12:32:50.202Z,44.77
2023-05-21T12:35:25.349Z,45.51
2023-05-21T12:37:54.597Z,42.41
2023-05-21T12:40:22.569Z,44.12
2023-05-21T12:42:51.896Z,45.54
2023-05-21T12:45:22.034Z,43.58
2023-05-21T12:47:56.500Z,46.52
2023-05-21T12:50:24.610Z,42.71
2023-05-21T12:52:57.242Z,42.44
2023-05-21T12:55:26.172Z,42.82
2023-05-21T12:58:04.480Z,43.09
2023-05-21T13:00:33.989Z,45.38
2023-05-21T13:03:02.315Z,43.41
2023-05-21T13:05:30.091Z,42.48
2023-05-21T13:07:59.595Z,43.92
2023-05-21T13:10:27.265Z,43.44
2023-05-21T13:12:55.350Z,45.49
2023-05-21T13:15:23.044Z,42.21
2023-05-21T13:17:52.548Z,42.39
2023-05-21T13:20:23.725Z,42.90
2023-05-21T13:22:53.044Z,43.53
2023-05-21T13:25:24.448Z,42.68
2023-05-21T13:27:53.920Z,43.00
2023-05-21T13:30:22.842Z,43.53
2023-05-21T13:32:52.098Z,42.38
2023-05-21T13:35:20.370Z,41.60
2023-05-21T13:37:48.143Z,42.52
2023-05-21T13:40:17.374Z,41.77
2023-05-21T13:42:48.306Z,42.01
2023-05-21T13:45:18.342Z,45.12
2023-05-21T13:47:47.702Z,41.45
2023-05-21T13:50:15.694Z,40.85
2023-05-21T13:52:44.103Z,41.11
2023-05-21T13:55:11.902Z,40.77
2023-05-21T13:57:40.992Z,41.72
2023-05-21T14:00:13.999Z,40.77
2023-05-21T14:02:42.983Z,42.13
2023-05-21T14:05:12.124Z,41.27
2023-05-21T14:07:41.348Z,40.88
2023-05-21T14:10:10.008Z,41.90
2023-05-21T14:12:38.472Z,40.06
2023-05-21T14:15:08.002Z,41.94
2023-05-21T14:17:37.166Z,42.28
2023-05-21T14:20:05.889Z,41.72
2023-05-21T14:22:33.620Z,42.31
2023-05-21T14:25:01.776Z,44.07
2023-05-21T14:27:29.485Z,42.48
2023-05-21T14:29:57.616Z,42.57
2023-05-21T14:32:25.495Z,41.74
2023-05-21T14:34:54.586Z,41.79
2023-05-21T14:37:22.799Z,40.27
2023-05-21T14:39:50.496Z,40.92
2023-05-21T14:42:18.572Z,41.92
2023-05-21T14:44:46.313Z,40.19
2023-05-21T14:47:14.068Z,41.06
2023-05-21T14:49:41.855Z,42.93
2023-05-21T14:52:11.384Z,43.15
2023-05-21T14:54:39.039Z,41.23
2023-05-21T14:57:06.807Z,41.86
2023-05-21T14:59:35.045Z,40.50
2023-05-21T15:02:03.020Z,40.36
2023-05-21T15:04:31.412Z,41.46
2023-05-21T15:06:59.057Z,40.01
2023-05-21T15:09:28.399Z,39.89
2023-05-21T15:11:56.131Z,42.28
2023-05-21T15:14:24.080Z,41.28
2023-05-21T15:16:51.847Z,42.09
2023-05-21T15:19:19.990Z,43.06
2023-05-21T15:21:47.853Z,42.71
2023-05-21T15:24:15.984Z,43.22
2023-05-21T15:26:45.051Z,41.95
2023-05-21T15:29:14.055Z,40.67
2023-05-21T15:31:41.762Z,41.47
2023-05-21T15:34:09.858Z,40.76
2023-05-21T15:36:37.649Z,40.50
2023-05-21T15:39:06.066Z,40.32
2023-05-21T15:41:36.909Z,40.61
2023-05-21T15:44:06.251Z,41.30
2023-05-21T15:46:34.349Z,41.72
2023-05-21T15:49:02.155Z,42.25
2023-05-21T15:51:30.336Z,40.74
2023-05-21T15:53:58.026Z,41.72
2023-05-21T15:56:27.132Z,41.73
2023-05-21T15:58:56.183Z,41.41
2023-05-21T16:01:27.123Z,40.20
2023-05-21T16:03:55.016Z,41.23
2023-05-21T16:06:23.337Z,40.91
2023-05-21T16:08:51.064Z,42.01
2023-05-21T16:11:19.023Z,39.38
2023-05-21T16:13:46.712Z,40.80
2023-05-21T16:16:15.656Z,41.15
2023-05-21T16:18:44.855Z,42.84
2023-05-21T16:21:13.055Z,41.83
2023-05-21T16:23:40.750Z,41.99
2023-05-21T16:26:10.512Z,41.67
2023-05-21T16:28:38.702Z,41.63
2023-05-21T16:31:06.999Z,41.22
2023-05-21T16:33:34.819Z,40.94
2023-05-21T16:36:03.929Z,41.21
2023-05-21T16:38:32.104Z,41.91
2023-05-21T16:40:59.912Z,41.71
2023-05-21T16:43:27.956Z,41.40
2023-05-21T16:45:55.724Z,42.34
2023-05-21T16:48:24.494Z,40.95
2023-05-21T16:50:52.130Z,40.42
2023-05-21T16:53:21.207Z,40.75
2023-05-21T16:55:49.302Z,41.15
2023-05-21T16:58:17.437Z,42.42
2023-05-21T17:00:45.734Z,42.12
2023-05-21T17:03:14.003Z,41.85
2023-05-21T17:05:41.811Z,42.28
2023-05-21T17:08:10.568Z,42.80
2023-05-21T17:10:39.624Z,41.89
2023-05-21T17:13:20.581Z,42.95
2023-05-21T17:15:48.870Z,43.47
2023-05-21T17:18:16.975Z,43.98
2023-05-21T17:20:44.772Z,44.13
2023-05-21T17:23:12.942Z,43.95
2023-05-21T17:25:42.256Z,41.21
2023-05-21T17:28:12.301Z,41.98
2023-05-21T17:30:40.014Z,43.43
2023-05-21T17:33:08.222Z,42.04
2023-05-21T17:35:36.162Z,43.38
2023-05-21T17:38:04.340Z,42.42
2023-05-21T17:40:32.083Z,42.49
2023-05-21T17:43:01.685Z,42.63
2023-05-21T17:45:29.403Z,42.75
2023-05-21T17:47:59.877Z,41.11
2023-05-21T17:50:28.333Z,41.42
2023-05-21T17:52:56.317Z,42.91
2023-05-21T17:55:24.101Z,43.13
2023-05-21T17:57:52.312Z,42.55
2023-05-21T18:00:22.186Z,43.98
2023-05-21T18:02:50.095Z,45.21
2023-05-21T18:05:17.769Z,42.78
2023-05-21T18:07:45.602Z,42.32
2023-05-21T18:10:15.154Z,43.19
2023-05-21T18:12:44.660Z,43.22
2023-05-21T18:15:12.957Z,42.69
2023-05-21T18:17:42.468Z,43.54
2023-05-21T18:20:11.021Z,43.69
2023-05-21T18:22:38.777Z,44.21
2023-05-21T18:25:07.974Z,44.46
2023-05-21T18:27:35.852Z,45.16
2023-05-21T18:30:06.565Z,45.22
2023-05-21T18:32:34.639Z,44.81
2023-05-21T18:35:04.049Z,45.34
2023-05-21T18:37:32.313Z,44.71
2023-05-21T18:40:00.048Z,44.83
2023-05-21T18:42:28.593Z,45.30
2023-05-21T18:44:56.369Z,45.85
2023-05-21T18:47:24.199Z,45.49
2023-05-21T18:49:51.950Z,45.52
2023-05-21T18:52:21.327Z,45.25
2023-05-21T18:54:49.617Z,45.74
2023-05-21T18:57:17.331Z,45.45
2023-05-21T18:59:45.441Z,45.57
2023-05-21T19:02:13.476Z,44.92
2023-05-21T19:04:41.826Z,44.20
2023-05-21T19:07:09.503Z,44.96
2023-05-21T19:09:38.970Z,45.40
2023-05-21T19:12:07.627Z,46.29
2023-05-21T19:14:35.976Z,46.40
2023-05-21T19:17:03.665Z,46.50
2023-05-21T19:19:31.505Z,47.07
2023-05-21T19:21:59.250Z,47.47
2023-05-21T19:24:27.379Z,47.40
2023-05-21T19:26:56.460Z,47.45
2023-05-21T19:29:26.260Z,47.58
2023-05-21T19:31:56.644Z,47.44
2023-05-21T19:34:24.698Z,47.38
2023-05-21T19:36:53.992Z,47.61
2023-05-21T19:39:21.969Z,47.79
2023-05-21T19:41:49.735Z,47.19
2023-05-21T19:44:18.832Z,47.63
2023-05-21T19:46:46.840Z,47.55
2023-05-21T19:49:15.816Z,47.98
2023-05-21T19:51:43.971Z,47.80
2023-05-21T19:54:11.675Z,48.33
2023-05-21T19:56:39.857Z,48.35
2023-05-21T19:59:07.550Z,48.30
2023-05-21T20:01:39.759Z,48.82
2023-05-21T20:04:07.723Z,48.64
2023-05-21T20:06:35.863Z,48.77
2023-05-21T20:09:03.976Z,49.14
2023-05-21T20:11:32.752Z,49.29
2023-05-21T20:14:02.385Z,49.61
2023-05-21T20:16:30.505Z,49.94
2023-05-21T20:19:01.822Z,50.47
2023-05-21T20:21:31.508Z,50.74
2023-05-21T20:23:59.480Z,51.33
2023-05-21T20:26:27.278Z,51.52
2023-05-21T20:28:55.277Z,52.38
2023-05-21T20:31:23.019Z,52.50
2023-05-21T20:33:51.383Z,52.59
2023-05-21T20:36:21.459Z,52.79
2023-05-21T20:38:49.159Z,53.28
2023-05-21T20:41:17.249Z,54.00
2023-05-21T20:43:45.922Z,53.86
2023-05-21T20:46:14.073Z,54.45
2023-05-21T20:48:43.478Z,53.89
2023-05-21T20:51:11.704Z,54.04
2023-05-21T20:53:40.805Z,53.72
2023-05-21T20:56:11.836Z,53.55
2023-05-21T20:58:39.881Z,53.65
2023-05-21T21:01:10.913Z,54.33
2023-05-21T21:03:41.429Z,54.33
2023-05-21T21:06:10.165Z,54.78
2023-05-21T21:08:40.552Z,54.76
2023-05-21T21:11:11.216Z,54.44
2023-05-21T21:13:39.790Z,54.50
2023-05-21T21:16:08.374Z,54.70
2023-05-21T21:18:36.351Z,54.89
2023-05-21T21:21:04.139Z,55.25
2023-05-21T21:23:32.211Z,55.56
2023-05-21T21:25:59.855Z,55.89
2023-05-21T21:28:29.136Z,55.80
2023-05-21T21:30:56.886Z,56.10
2023-05-21T21:33:26.978Z,55.69
2023-05-21T21:35:54.760Z,56.06
2023-05-21T21:38:22.886Z,56.21
2023-05-21T21:40:50.699Z,55.84
2023-05-21T21:43:18.762Z,56.35
2023-05-21T21:45:47.828Z,57.07
2023-05-21T21:48:16.768Z,56.58
2023-05-21T21:50:44.534Z,56.14
2023-05-21T21:53:14.251Z,55.96
2023-05-21T21:55:41.928Z,55.21
2023-05-21T21:58:09.616Z,55.48
2023-05-21T22:00:37.893Z,55.77
2023-05-21T22:03:07.188Z,55.65
2023-05-21T22:05:35.604Z,55.13
2023-05-21T22:08:03.876Z,55.23
2023-05-21T22:10:34.391Z,55.17
2023-05-21T22:13:02.759Z,55.32
2023-05-21T22:15:32.620Z,55.02
2023-05-21T22:18:02.244Z,55.34
2023-05-21T22:20:33.470Z,54.86
2023-05-21T22:23:01.156Z,54.85
2023-05-21T22:25:29.424Z,55.06
2023-05-21T22:27:57.163Z,54.44
2023-05-21T22:30:25.206Z,53.37
2023-05-21T22:32:52.948Z,53.88
2023-05-21T22:35:21.003Z,53.93
2023-05-21T22:37:50.056Z,53.80
2023-05-21T22:40:18.224Z,54.26
2023-05-21T22:42:46.135Z,53.78
2023-05-21T22:45:15.478Z,54.31
2023-05-21T22:47:43.370Z,54.29
2023-05-21T22:50:13.154Z,53.64
2023-05-21T22:52:40.935Z,53.51
2023-05-21T22:55:11.541Z,53.36
2023-05-21T22:57:39.657Z,53.24
2023-05-21T23:00:10.164Z,53.73
2023-05-21T23:02:37.857Z,54.36
2023-05-21T23:05:06.642Z,53.85
2023-05-21T23:07:34.438Z,53.02
2023-05-21T23:10:02.113Z,51.48
2023-05-21T23:12:31.585Z,51.45
2023-05-21T23:14:59.281Z,51.66
2023-05-21T23:17:27.412Z,51.34
2023-05-21T23:19:56.159Z,51.58
2023-05-21T23:22:24.428Z,51.40
2023-05-21T23:24:53.935Z,51.42
2023-05-21T23:27:22.275Z,50.59
2023-05-21T23:29:51.395Z,51.22
2023-05-21T23:32:19.825Z,51.41
2023-05-21T23:34:48.219Z,51.03
2023-05-21T23:37:16.572Z,51.57
2023-05-21T23:39:47.945Z,50.72
2023-05-21T23:42:16.313Z,50.39
2023-05-21T23:44:44.023Z,50.87
2023-05-21T23:47:13.328Z,51.10
2023-05-21T23:49:41.022Z,51.36
2023-05-21T23:52:09.000Z,51.47
2023-05-21T23:54:36.768Z,51.65
2023-05-21T23:57:05.159Z,50.73
2023-05-21T23:59:32.880Z,51.79
